Time;durP1;ratioP1;P1;durP2;ratioP2;P2;SDS_P1;SDS_P2;PMS_P1;PMS_P2;Temp;Humidity;BMP_temperature;BMP_pressure;BME280_temperature;BME280_humidity;BME280_pressure;Samples;Min_cycle;Max_cycle;Signal;HPM_P1;HPM_P2
2024/03/24 00:03:57;;;;;;;7.45;4.28;;;;;;;;;;10360557;28;20030;-61
2024/03/24 00:08:58;;;;;;;7.85;4.88;;;;;;;;;;10357715;28;20466;-59
2024/03/24 00:13:59;;;;;;;6.80;4.47;;;;;;;;;;10361449;28;20423;-59
2024/03/24 00:19:02;;;;;;;9.82;4.47;;;;;;;;;;10358197;28;20030;-59
2024/03/24 00:24:03;;;;;;;7.63;4.15;;;;;;;;;;10361694;28;20030;-60
2024/03/24 00:29:04;;;;;;;11.70;4.25;;;;;;;;;;10361214;28;20052;-59
2024/03/24 00:34:04;;;;;;;9.73;4.50;;;;;;;;;;10363441;28;20026;-60
2024/03/24 00:39:07;;;;;;;7.13;4.40;;;;;;;;;;10362932;28;20037;-60
2024/03/24 00:44:07;;;;;;;6.20;3.92;;;;;;;;;;10360812;28;20030;-60
2024/03/24 00:49:08;;;;;;;7.22;4.43;;;;;;;;;;10353727;28;20029;-60
2024/03/24 00:54:09;;;;;;;10.02;3.90;;;;;;;;;;10363553;28;20025;-60
2024/03/24 00:59:09;;;;;;;5.25;3.85;;;;;;;;;;10362154;28;20035;-60
2024/03/24 01:04:10;;;;;;;7.40;3.95;;;;;;;;;;10362695;28;20037;-59
2024/03/24 01:09:13;;;;;;;8.52;3.92;;;;;;;;;;10363562;28;20022;-59
2024/03/24 01:14:14;;;;;;;8.00;4.25;;;;;;;;;;10354305;28;20506;-61
2024/03/24 01:19:14;;;;;;;5.93;3.65;;;;;;;;;;10363930;28;20185;-61
2024/03/24 01:24:15;;;;;;;7.57;3.95;;;;;;;;;;10356245;28;20482;-61
2024/03/24 01:29:16;;;;;;;6.43;3.67;;;;;;;;;;10360164;28;20038;-61
2024/03/24 01:34:16;;;;;;;6.93;3.35;;;;;;;;;;10359228;28;20493;-62
2024/03/24 01:39:17;;;;;;;7.85;3.63;;;;;;;;;;10361959;28;20494;-62
2024/03/24 01:44:17;;;;;;;6.65;3.90;;;;;;;;;;10359500;28;20026;-61
2024/03/24 01:49:18;;;;;;;6.10;3.63;;;;;;;;;;10375385;28;20049;-62
2024/03/24 01:54:19;;;;;;;4.38;3.08;;;;;;;;;;10377572;28;20030;-60
2024/03/24 01:59:20;;;;;;;4.07;3.28;;;;;;;;;;10369848;28;20030;-60
2024/03/24 02:04:20;;;;;;;5.68;3.63;;;;;;;;;;10365252;28;20022;-62
2024/03/24 02:09:21;;;;;;;8.35;3.15;;;;;;;;;;10366623;28;20026;-62
2024/03/24 02:14:21;;;;;;;5.32;3.40;;;;;;;;;;10366545;28;20037;-62
2024/03/24 02:19:22;;;;;;;5.75;3.45;;;;;;;;;;10361694;28;20079;-61
2024/03/24 02:24:23;;;;;;;5.70;3.42;;;;;;;;;;10364323;28;20041;-61
2024/03/24 02:29:24;;;;;;;5.97;3.47;;;;;;;;;;10366682;28;20126;-59
2024/03/24 02:34:25;;;;;;;4.90;3.17;;;;;;;;;;10365938;28;20143;-62
2024/03/24 02:39:25;;;;;;;4.05;3.40;;;;;;;;;;10369248;28;20042;-61
2024/03/24 02:44:27;;;;;;;6.75;3.83;;;;;;;;;;10365971;28;20068;-61
2024/03/24 02:49:27;;;;;;;5.80;3.25;;;;;;;;;;10366693;28;20038;-61
2024/03/24 02:54:28;;;;;;;4.90;3.40;;;;;;;;;;10366829;28;20060;-61
2024/03/24 02:59:29;;;;;;;3.53;2.67;;;;;;;;;;10355703;28;20091;-60
2024/03/24 03:04:30;;;;;;;4.03;2.60;;;;;;;;;;10366197;28;20536;-60
2024/03/24 03:09:31;;;;;;;3.80;3.10;;;;;;;;;;10365497;28;20072;-62
2024/03/24 03:14:32;;;;;;;3.08;2.78;;;;;;;;;;10363192;28;20042;-61
2024/03/24 03:19:33;;;;;;;5.32;2.95;;;;;;;;;;10367288;28;20044;-61
2024/03/24 03:24:33;;;;;;;5.65;3.30;;;;;;;;;;10365252;28;20072;-61
2024/03/24 03:29:34;;;;;;;5.05;2.83;;;;;;;;;;10363749;28;20549;-59
2024/03/24 03:34:35;;;;;;;7.28;3.13;;;;;;;;;;10368073;28;20029;-60
2024/03/24 03:39:35;;;;;;;3.67;3.17;;;;;;;;;;10365838;28;20155;-60
2024/03/24 03:44:36;;;;;;;4.53;2.85;;;;;;;;;;10364700;28;20037;-60
2024/03/24 03:49:37;;;;;;;10.50;2.85;;;;;;;;;;10364442;28;20049;-60
2024/03/24 03:54:37;;;;;;;4.68;2.92;;;;;;;;;;10364810;28;20041;-61
2024/03/24 03:59:38;;;;;;;3.70;2.50;;;;;;;;;;10366112;28;20053;-60
2024/03/24 04:04:41;;;;;;;4.32;3.28;;;;;;;;;;10364409;28;20502;-60
2024/03/24 04:09:41;;;;;;;3.38;2.80;;;;;;;;;;10363399;28;20072;-60
2024/03/24 04:14:42;;;;;;;2.60;2.40;;;;;;;;;;10363135;28;20520;-61
2024/03/24 04:19:42;;;;;;;5.03;2.63;;;;;;;;;;10364484;28;20421;-61
2024/03/24 04:24:49;;;;;;;3.33;2.80;;;;;;;;;;10364368;28;20551;-61
2024/03/24 04:29:49;;;;;;;4.38;2.42;;;;;;;;;;10373705;28;20117;-62
2024/03/24 04:34:50;;;;;;;2.80;2.50;;;;;;;;;;10361598;28;20548;-59
2024/03/24 04:39:51;;;;;;;3.88;2.80;;;;;;;;;;10363350;28;20127;-62
2024/03/24 04:44:51;;;;;;;5.80;2.70;;;;;;;;;;10362160;28;20445;-61
2024/03/24 04:49:52;;;;;;;6.00;3.45;;;;;;;;;;10352586;28;20409;-60
2024/03/24 04:54:52;;;;;;;3.88;2.83;;;;;;;;;;10362975;28;20026;-61
2024/03/24 04:59:53;;;;;;;3.63;2.42;;;;;;;;;;10357443;28;20037;-61
2024/03/24 05:04:53;;;;;;;6.13;2.75;;;;;;;;;;10362015;28;20092;-61
2024/03/24 05:09:54;;;;;;;2.25;2.05;;;;;;;;;;10355180;28;20038;-60
2024/03/24 05:14:55;;;;;;;3.20;2.20;;;;;;;;;;10362866;28;20061;-61
2024/03/24 05:19:55;;;;;;;3.47;2.53;;;;;;;;;;10361584;28;20073;-61
2024/03/24 05:24:57;;;;;;;3.53;2.42;;;;;;;;;;10361131;28;20041;-60
2024/03/24 05:29:57;;;;;;;5.18;2.67;;;;;;;;;;10370636;28;20041;-60
2024/03/24 05:34:58;;;;;;;2.13;1.92;;;;;;;;;;10370260;28;20637;-60
2024/03/24 05:39:58;;;;;;;2.30;2.10;;;;;;;;;;10370181;28;20042;-62
2024/03/24 05:45:01;;;;;;;3.03;2.05;;;;;;;;;;10367743;28;20045;-61
2024/03/24 05:50:02;;;;;;;4.53;2.20;;;;;;;;;;10358651;28;20190;-60
2024/03/24 05:55:07;;;;;;;4.45;2.40;;;;;;;;;;10369530;28;20378;-60
2024/03/24 06:00:09;;;;;;;2.63;2.22;;;;;;;;;;10365584;28;20037;-59
2024/03/24 06:05:09;;;;;;;9.00;2.45;;;;;;;;;;10366849;28;20033;-62
2024/03/24 06:10:10;;;;;;;4.63;2.08;;;;;;;;;;10368766;28;20034;-61
2024/03/24 06:15:12;;;;;;;2.03;1.92;;;;;;;;;;10367286;28;20042;-61
2024/03/24 06:20:13;;;;;;;5.00;1.80;;;;;;;;;;10368117;28;20088;-62
2024/03/24 06:25:14;;;;;;;4.43;2.20;;;;;;;;;;10366049;28;20037;-62
2024/03/24 06:30:15;;;;;;;9.57;2.28;;;;;;;;;;10365970;28;20037;-62
2024/03/24 06:35:16;;;;;;;4.18;2.03;;;;;;;;;;10365190;28;20117;-59
2024/03/24 06:40:16;;;;;;;2.08;1.80;;;;;;;;;;10365102;28;20107;-63
2024/03/24 06:45:18;;;;;;;10.65;2.22;;;;;;;;;;10360218;28;20088;-62
2024/03/24 06:50:19;;;;;;;2.60;2.25;;;;;;;;;;10367075;28;20367;-62
2024/03/24 06:55:20;;;;;;;6.38;1.70;;;;;;;;;;10366310;28;20026;-61
2024/03/24 07:00:21;;;;;;;7.22;2.05;;;;;;;;;;10366765;28;20026;-61
2024/03/24 07:05:21;;;;;;;4.15;1.77;;;;;;;;;;10365975;28;20025;-62
2024/03/24 07:10:22;;;;;;;2.83;1.83;;;;;;;;;;10364276;28;20041;-62
2024/03/24 07:15:23;;;;;;;6.72;1.98;;;;;;;;;;10362958;28;20555;-60
2024/03/24 07:20:24;;;;;;;2.20;1.70;;;;;;;;;;10358180;28;20037;-60
2024/03/24 07:25:24;;;;;;;7.78;2.08;;;;;;;;;;10363687;28;20037;-60
2024/03/24 07:30:25;;;;;;;4.90;1.83;;;;;;;;;;10363138;28;20034;-62
2024/03/24 07:35:26;;;;;;;3.78;1.85;;;;;;;;;;10359414;28;20033;-59
2024/03/24 07:40:27;;;;;;;1.90;1.50;;;;;;;;;;10364088;28;20037;-59
2024/03/24 07:45:31;;;;;;;4.97;1.80;;;;;;;;;;10365536;28;20117;-58
2024/03/24 07:50:31;;;;;;;10.70;1.60;;;;;;;;;;10347562;28;20077;-59
2024/03/24 07:55:32;;;;;;;3.92;1.50;;;;;;;;;;10357317;28;20429;-59
2024/03/24 08:00:33;;;;;;;4.20;1.90;;;;;;;;;;10363828;28;20034;-60
2024/03/24 08:05:34;;;;;;;5.88;1.73;;;;;;;;;;10364378;28;20041;-64
2024/03/24 08:10:35;;;;;;;2.30;1.60;;;;;;;;;;10358163;28;20037;-60
2024/03/24 08:15:44;;;;;;;5.07;1.73;;;;;;;;;;10361058;28;20042;-60
2024/03/24 08:20:46;;;;;;;3.63;1.90;;;;;;;;;;10355903;28;20052;-60
2024/03/24 08:25:47;;;;;;;1.50;1.40;;;;;;;;;;10363408;28;20032;-60
2024/03/24 08:30:47;;;;;;;4.80;1.92;;;;;;;;;;10362585;28;20042;-60
2024/03/24 08:35:48;;;;;;;3.83;1.77;;;;;;;;;;10354827;28;20030;-61
2024/03/24 08:40:49;;;;;;;2.22;2.03;;;;;;;;;;10351646;28;20030;-61
2024/03/24 08:45:49;;;;;;;5.03;1.60;;;;;;;;;;10356662;28;20486;-61
2024/03/24 08:50:50;;;;;;;3.25;1.63;;;;;;;;;;10360238;28;20034;-61
2024/03/24 08:55:50;;;;;;;2.65;2.03;;;;;;;;;;10361318;28;20030;-61
2024/03/24 09:00:54;;;;;;;2.53;1.70;;;;;;;;;;10360199;28;20083;-60
2024/03/24 09:05:55;;;;;;;1.88;1.60;;;;;;;;;;10362216;28;20156;-60
2024/03/24 09:10:55;;;;;;;1.45;1.35;;;;;;;;;;10360531;28;20097;-60
2024/03/24 09:15:57;;;;;;;4.75;2.03;;;;;;;;;;10373642;28;20120;-60
2024/03/24 09:21:05;;;;;;;3.10;1.60;;;;;;;;;;10367754;28;20044;-61
2024/03/24 09:26:06;;;;;;;1.83;1.65;;;;;;;;;;10360210;28;20501;-61
2024/03/24 09:31:06;;;;;;;2.10;1.73;;;;;;;;;;10361649;28;20038;-60
2024/03/24 09:36:28;;;;;;;9.05;2.10;;;;;;;;;;10366644;28;20030;-61
2024/03/24 09:41:28;;;;;;;2.40;1.88;;;;;;;;;;10275124;28;20058;-61
2024/03/24 09:46:29;;;;;;;1.90;1.30;;;;;;;;;;10274200;28;20531;-63
2024/03/24 09:51:33;;;;;;;7.22;1.40;;;;;;;;;;10269247;28;20051;-60
2024/03/24 09:56:35;;;;;;;3.63;1.40;;;;;;;;;;10256428;28;20674;-59
2024/03/24 10:01:38;;;;;;;2.20;1.60;;;;;;;;;;10269947;28;20616;-60
2024/03/24 10:06:38;;;;;;;4.13;1.52;;;;;;;;;;10271138;28;20052;-62
2024/03/24 10:11:39;;;;;;;12.30;2.28;;;;;;;;;;10270441;28;20051;-62
2024/03/24 10:16:39;;;;;;;2.10;1.50;;;;;;;;;;10310100;28;20046;-62
2024/03/24 10:21:40;;;;;;;1.63;1.25;;;;;;;;;;10367187;28;20072;-62
2024/03/24 10:26:41;;;;;;;1.30;1.20;;;;;;;;;;10363894;28;20390;-61
2024/03/24 10:31:41;;;;;;;3.65;1.50;;;;;;;;;;10366328;28;20022;-61
2024/03/24 10:36:43;;;;;;;1.55;1.23;;;;;;;;;;10347467;28;20026;-60
2024/03/24 10:41:44;;;;;;;2.10;1.48;;;;;;;;;;10367185;28;20041;-60
2024/03/24 10:46:47;;;;;;;6.45;1.70;;;;;;;;;;10379360;28;20038;-61
2024/03/24 10:51:49;;;;;;;2.33;1.50;;;;;;;;;;10353484;28;20034;-63
2024/03/24 10:56:50;;;;;;;4.00;1.60;;;;;;;;;;10363486;28;20030;-63
2024/03/24 11:01:51;;;;;;;1.27;1.17;;;;;;;;;;10359775;28;20038;-63
2024/03/24 11:06:52;;;;;;;1.60;1.30;;;;;;;;;;10367981;28;20040;-63
2024/03/24 11:11:53;;;;;;;3.10;1.10;;;;;;;;;;10367335;28;20041;-63
2024/03/24 11:16:54;;;;;;;2.15;1.30;;;;;;;;;;10365930;28;20072;-63
2024/03/24 11:21:57;;;;;;;1.65;1.30;;;;;;;;;;10360031;28;20045;-62
2024/03/24 11:26:58;;;;;;;1.30;1.20;;;;;;;;;;10366203;28;20034;-62
2024/03/24 11:31:59;;;;;;;1.63;1.23;;;;;;;;;;10366743;28;20037;-63
2024/03/24 11:36:59;;;;;;;1.80;1.25;;;;;;;;;;10364883;28;20033;-61
2024/03/24 11:42:08;;;;;;;2.90;1.33;;;;;;;;;;10360103;28;20033;-60
2024/03/24 11:47:09;;;;;;;3.83;1.50;;;;;;;;;;10361690;28;20041;-61
2024/03/24 11:52:12;;;;;;;2.40;1.30;;;;;;;;;;10358707;28;20486;-60
2024/03/24 11:57:12;;;;;;;2.50;1.40;;;;;;;;;;10379285;28;20021;-60
2024/03/24 12:02:13;;;;;;;2.65;1.27;;;;;;;;;;10361005;28;20025;-61
2024/03/24 12:07:13;;;;;;;2.28;1.50;;;;;;;;;;10363138;28;20532;-62
2024/03/24 12:12:14;;;;;;;2.47;1.20;;;;;;;;;;10358638;28;20409;-62
2024/03/24 12:17:21;;;;;;;3.45;1.48;;;;;;;;;;10361319;28;20037;-62
2024/03/24 12:22:22;;;;;;;1.38;1.20;;;;;;;;;;10360825;28;20442;-62
2024/03/24 12:27:23;;;;;;;5.47;1.13;;;;;;;;;;10377714;28;20034;-60
2024/03/24 12:32:25;;;;;;;2.05;1.35;;;;;;;;;;10362831;28;20037;-62
2024/03/24 12:37:26;;;;;;;2.17;1.45;;;;;;;;;;10356211;28;20124;-62
2024/03/24 12:42:26;;;;;;;1.50;1.08;;;;;;;;;;10361931;28;20053;-62
2024/03/24 12:47:27;;;;;;;0.93;0.93;;;;;;;;;;10360119;28;20034;-62
2024/03/24 12:52:29;;;;;;;2.03;1.40;;;;;;;;;;10372388;23;20516;-60
2024/03/24 12:57:31;;;;;;;2.83;1.38;;;;;;;;;;10358300;28;20049;-61
2024/03/24 13:02:32;;;;;;;2.05;1.13;;;;;;;;;;10349044;28;20034;-62
2024/03/24 13:07:34;;;;;;;15.25;1.55;;;;;;;;;;10351519;28;20109;-60
2024/03/24 13:12:34;;;;;;;4.20;1.20;;;;;;;;;;10346018;28;20030;-60
2024/03/24 13:17:36;;;;;;;3.35;1.42;;;;;;;;;;10355716;28;20049;-60
2024/03/24 13:22:36;;;;;;;3.90;1.30;;;;;;;;;;10349961;28;20033;-60
2024/03/24 13:27:48;;;;;;;2.60;1.10;;;;;;;;;;10348988;28;20026;-60
2024/03/24 13:32:49;;;;;;;2.85;1.58;;;;;;;;;;10350300;28;20097;-59
2024/03/24 13:38:00;;;;;;;3.35;1.38;;;;;;;;;;10341546;28;20035;-60
2024/03/24 13:43:27;;;;;;;4.25;1.25;;;;;;;;;;10375790;28;20528;-60
2024/03/24 13:48:27;;;;;;;3.72;1.55;;;;;;;;;;10335984;28;20065;-60
2024/03/24 13:53:30;;;;;;;1.83;1.08;;;;;;;;;;10369502;28;20133;-59
2024/03/24 13:58:30;;;;;;;1.55;1.25;;;;;;;;;;10366367;28;20041;-59
2024/03/24 14:03:31;;;;;;;2.40;1.50;;;;;;;;;;10358736;28;20022;-60
2024/03/24 14:08:32;;;;;;;1.42;1.13;;;;;;;;;;10368649;28;20054;-59
2024/03/24 14:14:23;;;;;;;4.65;1.48;;;;;;;;;;10368106;28;20108;-61
2024/03/24 14:19:50;;;;;;;4.38;1.45;;;;;;;;;;10364126;28;20440;-62
2024/03/24 14:25:13;;;;;;;3.22;1.20;;;;;;;;;;10349500;28;20121;-62
2024/03/24 14:30:14;;;;;;;1.30;1.20;;;;;;;;;;10352358;28;20033;-59
2024/03/24 14:35:15;;;;;;;1.65;1.23;;;;;;;;;;10359356;28;20030;-60
2024/03/24 14:40:52;;;;;;;1.10;0.85;;;;;;;;;;10370843;28;20038;-62
2024/03/24 14:46:24;;;;;;;1.35;1.10;;;;;;;;;;10360960;28;20022;-60
2024/03/24 14:51:25;;;;;;;5.57;1.38;;;;;;;;;;10355939;28;20064;-62
2024/03/24 14:56:29;;;;;;;1.40;1.30;;;;;;;;;;10355515;28;20042;-59
2024/03/24 15:01:31;;;;;;;6.28;1.77;;;;;;;;;;10354127;28;20054;-61
2024/03/24 15:06:32;;;;;;;1.95;1.23;;;;;;;;;;10362452;28;20034;-60
2024/03/24 15:11:32;;;;;;;1.85;1.23;;;;;;;;;;10366126;28;20030;-60
2024/03/24 15:16:33;;;;;;;2.78;1.20;;;;;;;;;;10340275;28;20026;-60
2024/03/24 15:21:34;;;;;;;1.77;1.23;;;;;;;;;;10365581;28;20026;-60
2024/03/24 15:26:39;;;;;;;4.03;1.70;;;;;;;;;;10367342;28;20034;-60
2024/03/24 15:31:40;;;;;;;3.95;1.50;;;;;;;;;;10350239;28;20074;-59
2024/03/24 15:36:40;;;;;;;3.55;1.42;;;;;;;;;;10355688;28;20713;-60
2024/03/24 15:41:41;;;;;;;1.77;1.08;;;;;;;;;;10355886;28;20034;-59
2024/03/24 15:46:42;;;;;;;5.40;1.17;;;;;;;;;;10351752;28;20034;-60
2024/03/24 15:51:42;;;;;;;3.35;1.33;;;;;;;;;;10363756;28;20034;-59
2024/03/24 15:57:02;;;;;;;2.00;1.20;;;;;;;;;;10353357;28;20116;-60
2024/03/24 16:02:25;;;;;;;1.73;1.05;;;;;;;;;;10350551;28;20436;-60
2024/03/24 16:07:35;;;;;;;2.05;1.20;;;;;;;;;;10336198;28;20044;-60
2024/03/24 16:13:09;;;;;;;1.20;1.15;;;;;;;;;;10353769;28;20030;-59
2024/03/24 16:18:10;;;;;;;1.00;1.00;;;;;;;;;;10364562;28;20056;-61
2024/03/24 16:23:14;;;;;;;4.28;1.25;;;;;;;;;;10349447;28;20026;-61
2024/03/24 16:28:18;;;;;;;2.50;1.35;;;;;;;;;;10360672;28;20053;-61
2024/03/24 16:33:27;;;;;;;2.08;1.42;;;;;;;;;;10354881;28;20382;-59
2024/03/24 16:38:27;;;;;;;1.20;1.10;;;;;;;;;;10349123;28;20042;-61
2024/03/24 16:43:28;;;;;;;1.20;1.10;;;;;;;;;;10362887;28;20026;-61
2024/03/24 16:48:28;;;;;;;1.38;1.13;;;;;;;;;;10358195;28;20029;-61
2024/03/24 16:53:29;;;;;;;2.45;1.20;;;;;;;;;;10336441;28;20050;-61
2024/03/24 16:58:35;;;;;;;3.05;1.30;;;;;;;;;;10359368;28;20407;-61
2024/03/24 17:03:36;;;;;;;1.50;1.10;;;;;;;;;;10352735;28;20026;-61
2024/03/24 17:08:38;;;;;;;1.00;1.00;;;;;;;;;;10341007;28;20390;-62
2024/03/24 17:13:38;;;;;;;2.17;1.20;;;;;;;;;;10350301;28;20063;-61
2024/03/24 17:18:39;;;;;;;2.65;1.40;;;;;;;;;;10349900;28;20030;-61
2024/03/24 17:23:42;;;;;;;2.17;1.20;;;;;;;;;;10359320;28;20022;-61
2024/03/24 17:28:43;;;;;;;2.50;1.17;;;;;;;;;;10357564;28;20557;-61
2024/03/24 17:33:44;;;;;;;1.35;1.20;;;;;;;;;;10344486;28;20030;-60
2024/03/24 17:38:45;;;;;;;1.30;1.10;;;;;;;;;;10342270;28;20038;-61
2024/03/24 17:43:45;;;;;;;2.40;1.08;;;;;;;;;;10366627;28;20026;-61
2024/03/24 17:48:46;;;;;;;1.52;1.23;;;;;;;;;;10346929;28;20038;-59
2024/03/24 17:53:46;;;;;;;2.22;1.30;;;;;;;;;;10364288;28;20403;-59
2024/03/24 17:58:47;;;;;;;2.35;1.33;;;;;;;;;;10359409;28;20038;-59
2024/03/24 18:03:48;;;;;;;1.25;1.08;;;;;;;;;;10368425;28;20465;-59
2024/03/24 18:14:07;;;;;;;1.00;0.93;;;;;;;;;;10361207;28;20459;-59
2024/03/24 18:19:08;;;;;;;1.63;1.23;;;;;;;;;;10365769;28;20026;-62
2024/03/24 18:24:09;;;;;;;6.10;2.00;;;;;;;;;;10367345;28;20022;-61
2024/03/24 18:29:09;;;;;;;12.85;1.92;;;;;;;;;;10368480;28;20033;-62
2024/03/24 18:34:10;;;;;;;9.90;1.90;;;;;;;;;;10343524;28;20506;-62
2024/03/24 18:39:10;;;;;;;3.45;1.63;;;;;;;;;;10367148;28;20096;-63
2024/03/24 18:44:13;;;;;;;5.68;1.40;;;;;;;;;;10357965;28;20514;-63
2024/03/24 18:49:14;;;;;;;2.60;1.63;;;;;;;;;;10352802;28;20041;-62
2024/03/24 18:54:16;;;;;;;19.70;1.85;;;;;;;;;;10361517;28;20089;-62
2024/03/24 18:59:17;;;;;;;11.23;2.35;;;;;;;;;;10361276;28;20037;-62
2024/03/24 19:04:18;;;;;;;8.15;2.53;;;;;;;;;;10356445;28;20460;-61
2024/03/24 19:09:19;;;;;;;6.32;2.03;;;;;;;;;;10345290;28;20034;-62
2024/03/24 19:14:20;;;;;;;7.47;1.90;;;;;;;;;;10351365;28;20037;-63
2024/03/24 19:19:21;;;;;;;10.95;2.35;;;;;;;;;;10364676;28;20029;-63
2024/03/24 19:24:21;;;;;;;6.15;1.90;;;;;;;;;;10348636;28;20041;-63
2024/03/24 19:29:22;;;;;;;10.27;2.03;;;;;;;;;;10352300;28;20093;-62
2024/03/24 19:34:22;;;;;;;13.35;2.40;;;;;;;;;;10354292;28;20046;-60
2024/03/24 19:39:24;;;;;;;6.55;2.05;;;;;;;;;;10354009;28;20034;-63
2024/03/24 19:44:24;;;;;;;3.50;1.83;;;;;;;;;;10361065;28;20125;-63
2024/03/24 19:49:25;;;;;;;6.22;1.52;;;;;;;;;;10363916;28;20573;-62
2024/03/24 19:54:26;;;;;;;10.18;2.08;;;;;;;;;;10354528;28;20497;-62
2024/03/24 19:59:26;;;;;;;5.80;1.85;;;;;;;;;;10360685;28;20022;-61
2024/03/24 20:04:27;;;;;;;3.60;1.77;;;;;;;;;;10356376;28;20397;-62
2024/03/24 20:09:28;;;;;;;3.92;1.85;;;;;;;;;;10354233;28;20030;-62
2024/03/24 20:14:28;;;;;;;4.90;2.10;;;;;;;;;;10364479;28;20041;-62
2024/03/24 20:19:29;;;;;;;3.70;1.80;;;;;;;;;;10365046;28;20029;-61
2024/03/24 20:24:30;;;;;;;11.27;2.15;;;;;;;;;;10361331;28;20026;-62
2024/03/24 20:29:30;;;;;;;3.85;1.50;;;;;;;;;;10352713;28;20099;-62
2024/03/24 20:34:31;;;;;;;2.65;2.15;;;;;;;;;;10362278;28;20084;-60
2024/03/24 20:39:31;;;;;;;4.43;1.63;;;;;;;;;;10351226;28;20045;-64
2024/03/24 20:44:32;;;;;;;2.42;1.67;;;;;;;;;;10355972;28;20037;-63
2024/03/24 20:49:33;;;;;;;2.63;1.75;;;;;;;;;;10362885;28;20470;-64
2024/03/24 20:54:33;;;;;;;3.10;1.77;;;;;;;;;;10332534;28;20454;-61
2024/03/24 20:59:34;;;;;;;6.35;1.95;;;;;;;;;;10360145;28;20382;-65
2024/03/24 21:04:35;;;;;;;4.57;2.20;;;;;;;;;;10349727;28;20037;-64
2024/03/24 21:09:35;;;;;;;2.47;2.20;;;;;;;;;;10362758;28;20029;-64
2024/03/24 21:14:36;;;;;;;5.07;2.50;;;;;;;;;;10350124;28;20041;-65
2024/03/24 21:19:36;;;;;;;5.82;2.50;;;;;;;;;;10360498;28;20034;-62
2024/03/24 21:24:37;;;;;;;6.10;2.45;;;;;;;;;;10357074;28;20034;-62
2024/03/24 21:29:38;;;;;;;5.93;2.95;;;;;;;;;;10351494;28;20041;-62
2024/03/24 21:34:38;;;;;;;8.15;2.95;;;;;;;;;;10358068;28;20046;-65
2024/03/24 21:44:58;;;;;;;5.82;2.92;;;;;;;;;;10359914;28;20022;-61
2024/03/24 21:49:59;;;;;;;8.65;3.47;;;;;;;;;;10351795;28;20037;-62
2024/03/24 21:55:00;;;;;;;6.32;2.40;;;;;;;;;;10350551;28;20061;-63
2024/03/24 22:00:00;;;;;;;8.10;2.75;;;;;;;;;;10360014;28;20498;-62
2024/03/24 22:05:01;;;;;;;7.45;2.38;;;;;;;;;;10358938;28;20355;-62
2024/03/24 22:10:01;;;;;;;5.57;2.80;;;;;;;;;;10340405;28;20421;-62
2024/03/24 22:15:02;;;;;;;17.50;3.28;;;;;;;;;;10366036;28;20394;-60
2024/03/24 22:20:05;;;;;;;4.13;2.35;;;;;;;;;;10365833;28;20145;-60
2024/03/24 22:25:06;;;;;;;5.03;2.50;;;;;;;;;;10352157;28;20053;-61
2024/03/24 22:30:07;;;;;;;6.38;2.47;;;;;;;;;;10364181;28;20128;-60
2024/03/24 22:35:08;;;;;;;3.47;2.70;;;;;;;;;;10352155;28;20037;-59
2024/03/24 22:40:10;;;;;;;4.82;2.47;;;;;;;;;;10364247;28;20037;-60
2024/03/24 22:45:12;;;;;;;9.55;2.55;;;;;;;;;;10360381;28;21878;-60
2024/03/24 22:50:13;;;;;;;5.28;2.80;;;;;;;;;;10360737;28;20045;-60
2024/03/24 22:55:14;;;;;;;7.55;2.50;;;;;;;;;;10356037;28;20111;-61
2024/03/24 23:00:21;;;;;;;6.28;2.40;;;;;;;;;;10349894;28;20030;-61
2024/03/24 23:05:21;;;;;;;3.00;1.85;;;;;;;;;;10358748;28;20038;-61
2024/03/24 23:10:22;;;;;;;6.38;2.25;;;;;;;;;;10342230;28;20041;-63
2024/03/24 23:15:22;;;;;;;4.07;1.95;;;;;;;;;;10356377;28;20030;-61
2024/03/24 23:20:23;;;;;;;5.13;2.60;;;;;;;;;;10356191;28;20041;-63
2024/03/24 23:25:24;;;;;;;4.32;2.40;;;;;;;;;;10356177;28;20171;-63
2024/03/24 23:30:25;;;;;;;6.30;2.40;;;;;;;;;;10356051;28;20043;-63
2024/03/24 23:35:25;;;;;;;2.92;2.15;;;;;;;;;;10340417;28;20049;-60
2024/03/24 23:40:26;;;;;;;3.80;2.22;;;;;;;;;;10358993;28;20053;-63
2024/03/24 23:45:28;;;;;;;3.03;1.95;;;;;;;;;;10352274;28;20042;-63
2024/03/24 23:50:30;;;;;;;4.22;2.50;;;;;;;;;;10358580;28;20053;-62
2024/03/24 23:55:31;;;;;;;3.25;2.22;;;;;;;;;;10349467;28;20050;-62
